Time;durP1;ratioP1;P1;durP2;ratioP2;P2;SDS_P1;SDS_P2;PMS_P1;PMS_P2;Temp;Humidity;BMP_temperature;BMP_pressure;BME280_temperature;BME280_humidity;BME280_pressure;Samples;Min_cycle;Max_cycle;Signal;HPM_P1;HPM_P2
2022/03/20 00:00:14;;;;;;;55.22;23.35;;;;;;;-0.51;41.34;100894.25;4957433;28;20917;-64
2022/03/20 00:02:40;;;;;;;48.60;22.48;;;;;;;-0.52;41.19;100897.94;4960058;28;20184;-64
2022/03/20 00:05:06;;;;;;;47.20;20.75;;;;;;;-0.52;41.49;100896.13;4964308;28;20752;-64
2022/03/20 00:07:33;;;;;;;47.53;20.65;;;;;;;-0.51;41.41;100896.94;4965663;28;20033;-65
2022/03/20 00:10:03;;;;;;;39.80;17.95;;;;;;;-0.49;41.46;100897.63;4966529;28;20038;-64
2022/03/20 00:12:29;;;;;;;38.53;18.50;;;;;;;-0.51;41.30;100905.03;4962544;28;20411;-65
2022/03/20 00:14:54;;;;;;;43.60;20.38;;;;;;;-0.51;41.22;100902.34;4964150;28;20042;-64
2022/03/20 00:17:20;;;;;;;47.88;22.02;;;;;;;-0.51;41.20;100900.50;4961693;28;20051;-64
2022/03/20 00:19:46;;;;;;;47.60;23.73;;;;;;;-0.47;41.06;100901.00;4954432;28;20015;-65
2022/03/20 00:22:15;;;;;;;41.33;21.42;;;;;;;-0.50;40.82;100894.09;4952260;28;20062;-64
2022/03/20 00:24:43;;;;;;;44.45;21.17;;;;;;;-0.58;41.44;100895.91;4962626;28;20042;-65
2022/03/20 00:27:11;;;;;;;45.63;20.90;;;;;;;-0.62;41.48;100890.00;4962991;28;20035;-65
2022/03/20 00:29:36;;;;;;;39.38;19.63;;;;;;;-0.63;41.21;100899.09;4962557;28;20034;-64
2022/03/20 00:32:03;;;;;;;45.88;20.35;;;;;;;-0.66;41.44;100891.34;4961015;28;20082;-65
2022/03/20 00:34:28;;;;;;;40.00;20.08;;;;;;;-0.74;41.57;100889.47;4963268;28;20513;-64
2022/03/20 00:36:54;;;;;;;44.40;22.02;;;;;;;-0.79;41.53;100889.94;4961846;28;20046;-64
2022/03/20 00:39:20;;;;;;;38.72;19.05;;;;;;;-0.79;41.32;100887.22;4956237;28;20069;-65
2022/03/20 00:41:46;;;;;;;43.05;20.25;;;;;;;-0.79;41.47;100894.47;4954033;28;20532;-65
2022/03/20 00:44:11;;;;;;;49.58;22.70;;;;;;;-0.76;41.65;100895.00;4956750;28;20403;-64
2022/03/20 00:46:36;;;;;;;47.78;21.63;;;;;;;-0.74;41.49;100894.84;4961807;28;20042;-65
2022/03/20 00:49:02;;;;;;;47.85;22.45;;;;;;;-0.69;41.54;100889.81;4965089;28;20021;-64
2022/03/20 00:51:28;;;;;;;58.65;27.83;;;;;;;-0.62;41.51;100887.31;4966568;28;20109;-64
2022/03/20 00:53:53;;;;;;;51.10;23.90;;;;;;;-0.62;41.36;100893.56;4967262;28;20021;-64
2022/03/20 00:56:19;;;;;;;52.45;26.30;;;;;;;-0.64;41.22;100886.63;4966445;28;20455;-65
2022/03/20 00:58:46;;;;;;;46.78;24.35;;;;;;;-0.61;41.44;100883.59;4965366;28;20030;-63
2022/03/20 01:01:14;;;;;;;45.05;22.17;;;;;;;-0.58;41.10;100890.50;4957492;28;20033;-64
2022/03/20 01:03:40;;;;;;;42.28;19.70;;;;;;;-0.68;41.51;100885.25;4955697;28;20026;-64
2022/03/20 01:06:07;;;;;;;36.75;19.02;;;;;;;-0.85;41.49;100887.03;4963644;28;20097;-64
2022/03/20 01:08:34;;;;;;;40.08;19.50;;;;;;;-1.00;41.71;100893.03;4965795;28;20030;-64
2022/03/20 01:11:00;;;;;;;39.58;19.50;;;;;;;-1.13;42.02;100880.00;4966735;28;20480;-64
2022/03/20 01:13:26;;;;;;;45.55;21.60;;;;;;;-1.20;41.61;100884.31;4967225;28;20081;-64
2022/03/20 01:15:51;;;;;;;42.35;20.63;;;;;;;-1.21;42.08;100883.50;4966437;28;20030;-64
2022/03/20 01:18:17;;;;;;;40.15;20.05;;;;;;;-1.24;42.18;100883.81;4965359;28;20070;-64
2022/03/20 01:20:42;;;;;;;42.28;20.65;;;;;;;-1.30;42.35;100878.22;4962278;28;20037;-63
2022/03/20 01:23:08;;;;;;;38.05;19.42;;;;;;;-1.32;42.12;100877.53;4956591;28;20057;-64
2022/03/20 01:25:35;;;;;;;43.10;19.90;;;;;;;-1.28;42.48;100884.28;4957422;28;20148;-63
2022/03/20 01:28:00;;;;;;;41.80;19.38;;;;;;;-1.23;42.07;100879.28;4964675;28;20081;-64
2022/03/20 01:30:26;;;;;;;42.60;20.65;;;;;;;-1.22;42.35;100880.94;4964716;28;20632;-63
2022/03/20 01:32:51;;;;;;;40.08;18.88;;;;;;;-1.18;42.09;100878.78;4964308;28;20043;-63
2022/03/20 01:35:16;;;;;;;42.60;21.17;;;;;;;-1.16;42.41;100879.47;4965016;28;20928;-64
2022/03/20 01:37:42;;;;;;;37.10;19.15;;;;;;;-1.15;42.08;100876.63;4965876;28;20034;-64
2022/03/20 01:40:08;;;;;;;40.55;20.95;;;;;;;-1.15;41.80;100876.63;4964926;28;20031;-64
2022/03/20 01:42:38;;;;;;;37.58;18.17;;;;;;;-1.17;42.05;100872.41;4957998;28;20022;-64
2022/03/20 01:45:18;;;;;;;46.80;21.52;;;;;;;-1.23;42.11;100879.28;4952723;28;20691;-64
2022/03/20 01:47:47;;;;;;;43.20;20.70;;;;;;;-1.27;42.11;100870.66;4961703;28;20113;-63
2022/03/20 01:50:13;;;;;;;39.60;19.75;;;;;;;-1.33;41.88;100873.97;4965132;28;20058;-64
2022/03/20 01:52:39;;;;;;;39.83;19.08;;;;;;;-1.40;42.04;100870.22;4965256;28;20174;-64
2022/03/20 01:55:08;;;;;;;44.30;21.45;;;;;;;-1.50;41.91;100873.88;4966157;28;20059;-64
2022/03/20 01:57:37;;;;;;;39.17;21.13;;;;;;;-1.56;42.36;100868.28;4966142;28;20668;-64
2022/03/20 02:00:06;;;;;;;43.00;21.80;;;;;;;-1.57;42.51;100870.13;4970162;28;20387;-64
2022/03/20 02:02:31;;;;;;;53.65;26.95;;;;;;;-1.60;42.42;100866.91;4970233;28;20356;-63
2022/03/20 02:04:56;;;;;;;56.40;29.00;;;;;;;-1.62;42.55;100867.06;4966971;28;20034;-64
2022/03/20 02:07:24;;;;;;;47.95;26.52;;;;;;;-1.63;42.17;100862.69;4966259;28;20046;-64
2022/03/20 02:09:50;;;;;;;63.97;29.05;;;;;;;-1.59;42.58;100868.59;4966486;28;20034;-63
2022/03/20 02:12:16;;;;;;;94.97;38.20;;;;;;;-1.52;42.80;100859.75;4965827;28;20105;-64
2022/03/20 02:14:41;;;;;;;83.00;34.65;;;;;;;-1.43;42.93;100863.31;4972269;28;20073;-64
2022/03/20 02:17:10;;;;;;;79.05;33.53;;;;;;;-1.39;42.71;100869.22;4970366;28;20120;-64
2022/03/20 02:19:38;;;;;;;54.22;27.50;;;;;;;-1.34;42.47;100866.91;4970256;28;20494;-64
2022/03/20 02:22:04;;;;;;;52.45;26.50;;;;;;;-1.27;42.29;100872.53;4966801;28;20905;-64
2022/03/20 02:24:49;;;;;;;51.72;26.42;;;;;;;-1.23;42.26;100866.66;4966889;28;20041;-64
2022/03/20 02:27:23;;;;;;;66.57;30.85;;;;;;;-1.19;42.36;100872.53;4966300;28;20514;-63
2022/03/20 02:29:52;;;;;;;53.47;27.13;;;;;;;-1.20;42.36;100868.16;4975015;28;20081;-63
2022/03/20 02:32:28;;;;;;;51.38;25.40;;;;;;;-1.23;42.08;100876.59;4974779;28;20034;-64
2022/03/20 02:34:55;;;;;;;47.70;25.20;;;;;;;-1.24;42.09;100869.50;4966477;28;20031;-64
2022/03/20 02:37:22;;;;;;;42.72;23.20;;;;;;;-1.21;42.52;100870.03;4967236;28;20035;-63
2022/03/20 02:39:49;;;;;;;50.03;23.27;;;;;;;-1.26;42.17;100864.28;4968607;28;20045;-64
2022/03/20 02:42:16;;;;;;;44.92;22.80;;;;;;;-1.26;42.24;100874.22;4966003;28;20027;-64
2022/03/20 02:45:05;;;;;;;48.90;23.98;;;;;;;-1.25;42.30;100868.66;4971006;28;20395;-63
2022/03/20 02:47:33;;;;;;;43.70;20.95;;;;;;;-1.21;42.34;100871.84;4967649;28;20411;-64
2022/03/20 02:50:04;;;;;;;44.50;22.77;;;;;;;-1.26;42.67;100868.81;4966709;28;20042;-63
2022/03/20 02:52:49;;;;;;;45.80;21.30;;;;;;;-1.35;42.85;100873.28;4965117;28;20031;-64
2022/03/20 02:55:19;;;;;;;47.80;21.67;;;;;;;-1.51;43.00;100874.03;4969129;28;20142;-64
2022/03/20 02:57:47;;;;;;;45.83;23.37;;;;;;;-1.67;43.31;100866.69;4974059;28;20050;-64
2022/03/20 03:00:13;;;;;;;41.05;21.63;;;;;;;-1.83;43.30;100868.22;4973681;28;20289;-63
2022/03/20 03:02:45;;;;;;;40.65;21.58;;;;;;;-1.93;43.45;100866.63;4967763;28;20027;-64
2022/03/20 03:05:16;;;;;;;43.00;21.27;;;;;;;-2.03;43.39;100872.09;4959266;28;20034;-63
2022/03/20 03:13:16;;;;;;;45.92;22.77;;;;;;;-2.18;44.31;100878.00;4961866;28;20050;-64
2022/03/20 03:15:42;;;;;;;45.30;23.75;;;;;;;-2.20;44.15;100866.56;4967569;28;20022;-64
2022/03/20 03:18:08;;;;;;;48.58;24.40;;;;;;;-2.11;44.44;100876.41;4965606;28;20407;-63
2022/03/20 03:20:34;;;;;;;51.25;25.98;;;;;;;-2.02;44.39;100871.09;4954835;28;20065;-64
2022/03/20 03:22:59;;;;;;;55.95;26.50;;;;;;;-1.95;44.48;100875.69;4962995;28;20057;-64
2022/03/20 03:25:25;;;;;;;55.47;26.45;;;;;;;-1.88;44.29;100877.78;4973290;28;20057;-64
2022/03/20 03:27:52;;;;;;;53.20;25.58;;;;;;;-1.83;43.81;100880.84;4973901;28;20418;-64
2022/03/20 03:30:18;;;;;;;49.20;24.52;;;;;;;-1.77;44.19;100882.06;4973717;28;20122;-64
2022/03/20 03:32:44;;;;;;;54.50;25.73;;;;;;;-1.74;43.95;100892.53;4971735;28;20501;-64
2022/03/20 03:37:59;;;;;;;43.20;21.65;;;;;;;-1.77;44.16;100885.63;4963524;28;20529;-64
2022/03/20 03:40:25;;;;;;;48.03;23.80;;;;;;;-1.85;44.17;100882.84;4967710;28;20038;-64
2022/03/20 03:42:51;;;;;;;51.03;24.23;;;;;;;-1.91;44.39;100887.00;4967064;28;20404;-64
2022/03/20 03:45:17;;;;;;;54.28;25.33;;;;;;;-1.95;44.09;100883.78;4984706;28;20027;-64
2022/03/20 03:47:42;;;;;;;44.00;22.25;;;;;;;-2.00;44.08;100883.38;4973826;28;20039;-64
2022/03/20 03:50:09;;;;;;;54.38;25.05;;;;;;;-2.12;44.49;100890.84;4959664;28;20102;-64
2022/03/20 03:52:35;;;;;;;49.42;23.48;;;;;;;-2.20;44.25;100893.44;4963664;28;20027;-65
2022/03/20 03:55:01;;;;;;;52.75;24.38;;;;;;;-2.30;44.25;100890.81;4969247;28;20078;-64
2022/03/20 03:57:26;;;;;;;57.80;24.65;;;;;;;-2.40;44.79;100898.97;4968872;28;20051;-63
2022/03/20 03:59:52;;;;;;;57.95;25.70;;;;;;;-2.47;45.05;100902.41;4967975;28;20098;-64
2022/03/20 04:02:17;;;;;;;61.72;28.15;;;;;;;-2.47;45.00;100905.94;4970567;28;20468;-64
2022/03/20 04:04:43;;;;;;;66.30;28.73;;;;;;;-2.40;45.23;100895.41;4963963;28;20019;-63
2022/03/20 04:07:09;;;;;;;63.13;29.33;;;;;;;-2.33;45.26;100895.69;4959672;28;20027;-64
2022/03/20 04:09:36;;;;;;;64.60;28.55;;;;;;;-2.28;45.13;100898.75;4959670;28;20035;-63
2022/03/20 04:12:03;;;;;;;66.20;29.65;;;;;;;-2.23;44.96;100899.13;4966203;28;20106;-64
2022/03/20 04:14:29;;;;;;;44.72;22.08;;;;;;;-2.22;44.56;100892.75;4963286;28;20019;-63
2022/03/20 04:16:55;;;;;;;52.85;24.30;;;;;;;-2.26;44.96;100896.75;4967094;28;20399;-64
2022/03/20 04:19:21;;;;;;;56.25;27.05;;;;;;;-2.36;44.78;100896.81;4964749;28;20105;-64
2022/03/20 04:21:48;;;;;;;54.67;26.15;;;;;;;-2.45;45.49;100893.19;4966079;28;20487;-64
2022/03/20 04:24:13;;;;;;;51.45;24.35;;;;;;;-2.56;45.04;100894.25;4966426;28;20035;-63
2022/03/20 04:26:39;;;;;;;60.40;28.40;;;;;;;-2.54;45.80;100896.78;4971323;28;20019;-64
2022/03/20 04:29:04;;;;;;;67.70;28.80;;;;;;;-2.55;45.76;100884.34;4965388;28;20110;-64
2022/03/20 04:31:30;;;;;;;58.97;27.17;;;;;;;-2.63;46.37;100901.22;4968807;28;20023;-63
2022/03/20 04:33:56;;;;;;;52.35;25.63;;;;;;;-2.64;46.03;100906.72;4970084;28;20054;-64
2022/03/20 04:36:23;;;;;;;54.33;26.38;;;;;;;-2.70;46.27;100903.66;4968687;28;20025;-63
2022/03/20 04:38:51;;;;;;;54.25;25.83;;;;;;;-2.73;46.36;100903.97;4969016;28;20058;-64
2022/03/20 04:41:17;;;;;;;53.70;24.25;;;;;;;-2.78;46.40;100908.94;4971791;28;20110;-64
2022/03/20 04:43:44;;;;;;;57.30;25.42;;;;;;;-2.84;46.61;100906.81;4968288;28;20186;-64
2022/03/20 04:46:10;;;;;;;54.03;25.95;;;;;;;-2.86;46.99;100907.00;4969718;28;20102;-63
2022/03/20 04:59:31;;;;;;;48.00;23.85;;;;;;;-2.74;47.14;100922.88;4984230;28;20073;-63
2022/03/20 05:01:56;;;;;;;50.63;24.90;;;;;;;-2.73;46.79;100925.44;4968557;28;20094;-63
2022/03/20 05:04:22;;;;;;;50.05;24.10;;;;;;;-2.72;46.91;100929.81;4975759;28;20459;-63
2022/03/20 05:06:47;;;;;;;45.33;22.42;;;;;;;-2.68;47.02;100940.28;4969457;28;20050;-63
2022/03/20 05:14:41;;;;;;;51.13;24.52;;;;;;;-2.58;46.57;100944.59;4973914;28;20034;-64
2022/03/20 05:17:07;;;;;;;47.40;23.50;;;;;;;-2.56;47.02;100948.00;4989357;28;20399;-64
2022/03/20 05:19:38;;;;;;;50.58;23.92;;;;;;;-2.61;47.24;100950.28;4975196;28;20023;-64
2022/03/20 05:22:05;;;;;;;51.92;23.90;;;;;;;-2.63;47.60;100956.78;4976220;28;20481;-64
2022/03/20 05:24:33;;;;;;;45.15;22.42;;;;;;;-2.66;47.69;100960.63;4970035;28;20041;-64
2022/03/20 05:26:59;;;;;;;48.13;24.15;;;;;;;-2.64;47.66;100952.41;4968614;28;20391;-64
2022/03/20 05:29:24;;;;;;;47.25;22.27;;;;;;;-2.66;47.91;100952.56;4965875;28;20031;-64
2022/03/20 05:31:50;;;;;;;47.50;23.73;;;;;;;-2.65;48.14;100950.72;4959780;28;20027;-63
2022/03/20 05:34:18;;;;;;;48.25;24.50;;;;;;;-2.61;48.15;100961.03;4961442;28;20035;-63
2022/03/20 05:36:43;;;;;;;47.17;23.88;;;;;;;-2.56;48.09;100960.56;4958611;28;20071;-64
2022/03/20 05:39:09;;;;;;;50.35;24.77;;;;;;;-2.47;47.91;100961.53;4955927;28;20113;-64
2022/03/20 05:41:47;;;;;;;50.95;26.15;;;;;;;-2.45;47.68;100959.56;4959363;28;20030;-64
2022/03/20 05:44:15;;;;;;;46.45;23.15;;;;;;;-2.42;48.09;100961.91;4958256;28;20395;-63
2022/03/20 05:46:48;;;;;;;59.78;27.48;;;;;;;-2.37;48.31;100961.47;4955288;28;20472;-64
2022/03/20 05:49:17;;;;;;;53.30;25.25;;;;;;;-2.33;47.81;100958.34;4955427;28;20031;-63
2022/03/20 05:51:43;;;;;;;52.05;24.38;;;;;;;-2.31;48.07;100963.56;4967128;28;20031;-65
2022/03/20 05:54:09;;;;;;;49.55;25.63;;;;;;;-2.26;48.21;100969.34;4975722;28;20038;-65
2022/03/20 05:59:19;;;;;;;59.22;29.55;;;;;;;-2.13;48.26;100969.81;4972628;28;20049;-63
2022/03/20 06:01:44;;;;;;;53.28;24.92;;;;;;;-2.05;48.20;100966.41;4974162;28;20035;-63
2022/03/20 06:04:10;;;;;;;50.65;25.42;;;;;;;-1.97;47.97;100971.00;4973765;28;20364;-64
2022/03/20 06:06:37;;;;;;;56.03;26.75;;;;;;;-1.89;47.95;100976.47;4974291;28;20475;-63
2022/03/20 06:09:03;;;;;;;52.97;29.05;;;;;;;-1.79;47.87;100973.72;4974089;28;20031;-63
2022/03/20 06:11:29;;;;;;;54.42;26.75;;;;;;;-1.68;47.76;100975.31;4971706;28;20067;-63
2022/03/20 06:13:55;;;;;;;52.28;24.00;;;;;;;-1.61;47.61;100976.41;4973952;28;20090;-63
2022/03/20 06:16:23;;;;;;;54.60;24.77;;;;;;;-1.52;47.84;100971.94;4973933;28;20038;-63
2022/03/20 06:18:49;;;;;;;51.83;26.02;;;;;;;-1.45;47.82;100977.56;4973849;28;20046;-63
2022/03/20 06:21:14;;;;;;;51.88;27.02;;;;;;;-1.41;47.69;100979.78;4971800;28;20031;-63
2022/03/20 06:23:39;;;;;;;52.55;26.65;;;;;;;-1.36;47.52;100977.47;4972649;28;20471;-64
2022/03/20 06:26:08;;;;;;;49.88;26.25;;;;;;;-1.29;47.33;100983.06;4973843;28;20027;-63
2022/03/20 06:28:34;;;;;;;59.63;28.10;;;;;;;-1.20;47.73;100986.66;4988260;28;20050;-63
2022/03/20 06:31:01;;;;;;;54.55;28.00;;;;;;;-1.14;47.37;100987.88;4973116;28;20031;-63
2022/03/20 06:33:27;;;;;;;51.88;26.23;;;;;;;-1.05;47.47;100995.03;4973666;28;20031;-63
2022/03/20 06:35:53;;;;;;;52.95;26.48;;;;;;;-0.97;47.33;100999.63;4970674;28;20024;-63
2022/03/20 06:38:22;;;;;;;55.72;26.35;;;;;;;-0.90;47.10;101003.38;4972914;28;20505;-63
2022/03/20 06:40:47;;;;;;;52.53;26.00;;;;;;;-0.86;47.11;101006.59;4973425;28;20034;-63
2022/03/20 06:43:14;;;;;;;63.83;30.55;;;;;;;-0.74;47.04;101002.66;4973875;28;20041;-63
2022/03/20 06:45:41;;;;;;;53.70;26.15;;;;;;;-0.62;46.88;101012.16;4973442;28;20098;-63
2022/03/20 06:48:07;;;;;;;49.30;24.85;;;;;;;-0.55;46.63;101015.06;4973992;28;20030;-64
2022/03/20 06:50:33;;;;;;;52.47;25.10;;;;;;;-0.47;46.71;101015.09;4967701;28;20392;-63
2022/03/20 06:53:03;;;;;;;50.20;26.15;;;;;;;-0.38;46.70;101017.81;4966722;28;20035;-63
2022/03/20 06:55:30;;;;;;;;;;;;;;;-0.29;46.45;101024.94;4969343;28;20027;-64
2022/03/20 06:57:57;;;;;;;53.15;25.38;;;;;;;-0.24;46.54;101027.19;4954347;28;20290;-63
2022/03/20 07:00:23;;;;;;;48.47;22.70;;;;;;;-0.18;46.26;101027.38;4971477;28;20073;-63
2022/03/20 07:02:49;;;;;;;58.80;29.10;;;;;;;-0.05;46.50;101028.78;4971020;28;20034;-63
2022/03/20 07:05:14;;;;;;;49.38;24.25;;;;;;;0.11;46.30;101023.41;4973285;28;20035;-63
2022/03/20 07:07:40;;;;;;;54.35;26.50;;;;;;;0.22;45.71;101034.91;4973789;28;20019;-63
2022/03/20 07:10:07;;;;;;;49.88;26.27;;;;;;;0.27;45.92;101027.19;4974265;28;20456;-63
2022/03/20 07:12:33;;;;;;;58.05;26.65;;;;;;;0.34;45.73;101027.34;4973018;28;20093;-63
2022/03/20 07:14:59;;;;;;;51.40;27.00;;;;;;;0.39;45.46;101031.25;4971875;28;20038;-64
2022/03/20 07:17:25;;;;;;;53.42;26.73;;;;;;;0.47;45.67;101030.44;4973556;28;20034;-63
2022/03/20 07:19:51;;;;;;;55.75;25.85;;;;;;;0.55;45.49;101035.84;4968340;28;20503;-63
2022/03/20 07:22:18;;;;;;;48.65;23.90;;;;;;;0.62;45.48;101035.16;4972677;28;20479;-63
2022/03/20 07:24:44;;;;;;;52.80;26.92;;;;;;;0.66;45.14;101033.81;4974172;28;20042;-64
2022/03/20 07:29:55;;;;;;;52.53;25.88;;;;;;;0.79;45.18;101036.88;4972417;28;20177;-63
2022/03/20 07:32:21;;;;;;;53.17;27.95;;;;;;;0.85;45.03;101046.16;4971544;28;20113;-64
2022/03/20 07:34:47;;;;;;;53.10;25.90;;;;;;;0.95;45.04;101046.81;4970038;28;20096;-64
2022/03/20 07:37:18;;;;;;;50.83;27.33;;;;;;;1.02;44.88;101045.16;4967793;28;20510;-64
2022/03/20 07:39:49;;;;;;;53.22;26.13;;;;;;;1.09;44.59;101050.69;4973737;28;20034;-63
2022/03/20 07:42:18;;;;;;;53.08;26.63;;;;;;;1.17;44.90;101045.28;4973184;28;20467;-64
2022/03/20 07:44:43;;;;;;;54.38;27.35;;;;;;;1.29;44.41;101042.25;4973203;28;20030;-63
2022/03/20 07:47:20;;;;;;;51.38;25.65;;;;;;;1.41;44.36;101048.13;4971966;28;20034;-64
2022/03/20 07:49:46;;;;;;;46.10;24.45;;;;;;;1.51;44.11;101042.53;4973790;28;20033;-64
2022/03/20 07:52:12;;;;;;;52.08;25.40;;;;;;;1.61;44.23;101041.34;4965272;28;20114;-63
2022/03/20 07:54:38;;;;;;;44.63;24.35;;;;;;;1.67;44.05;101039.78;4968379;28;20588;-64
2022/03/20 07:57:04;;;;;;;51.15;26.27;;;;;;;1.77;44.33;101045.84;4962762;28;20479;-64
2022/03/20 07:59:30;;;;;;;54.28;29.27;;;;;;;1.87;43.48;101048.34;4954275;28;20039;-64
2022/03/20 08:01:55;;;;;;;46.53;25.23;;;;;;;2.06;43.57;101043.53;4970773;28;20019;-63
2022/03/20 08:04:21;;;;;;;53.72;29.13;;;;;;;2.17;43.70;101045.03;4972699;28;20042;-63
2022/03/20 08:06:46;;;;;;;53.42;28.02;;;;;;;2.25;43.11;101053.06;4969179;28;20019;-64
2022/03/20 08:09:12;;;;;;;55.60;29.05;;;;;;;2.34;43.11;101046.59;4973164;28;20041;-64
2022/03/20 08:11:37;;;;;;;56.80;29.27;;;;;;;2.49;43.42;101049.38;4973146;28;20038;-63
2022/03/20 08:14:07;;;;;;;52.25;28.05;;;;;;;2.63;43.00;101049.66;4972258;28;20110;-64
2022/03/20 08:16:37;;;;;;;51.53;28.42;;;;;;;2.69;42.91;101054.34;4972912;28;20512;-63
2022/03/20 08:19:03;;;;;;;48.85;25.65;;;;;;;2.82;42.84;101053.75;4972864;28;20081;-63
2022/03/20 08:21:28;;;;;;;59.88;29.35;;;;;;;2.97;42.50;101057.38;4957435;28;20071;-63
2022/03/20 08:23:54;;;;;;;50.88;28.15;;;;;;;3.17;42.83;101056.00;4971626;28;20478;-63
2022/03/20 08:26:20;;;;;;;47.03;26.13;;;;;;;3.31;42.15;101057.06;4973151;28;20035;-64
2022/03/20 08:28:45;;;;;;;52.42;26.70;;;;;;;3.41;42.03;101052.22;4972921;28;20476;-64
2022/03/20 08:31:12;;;;;;;56.85;29.13;;;;;;;3.54;42.00;101054.31;4965646;28;20046;-63
2022/03/20 08:33:40;;;;;;;45.75;24.90;;;;;;;3.62;41.39;101054.22;4968702;28;20494;-64
2022/03/20 08:36:06;;;;;;;53.47;26.58;;;;;;;3.67;40.63;101061.78;4973044;28;20495;-64
2022/03/20 08:38:31;;;;;;;47.00;25.42;;;;;;;3.78;41.57;101052.34;4973346;28;20066;-63
2022/03/20 08:40:57;;;;;;;54.30;27.25;;;;;;;3.92;40.68;101056.06;4973154;28;20035;-63
2022/03/20 08:43:23;;;;;;;44.47;25.65;;;;;;;4.02;40.71;101054.78;4971166;28;20027;-63
2022/03/20 08:45:49;;;;;;;45.45;26.08;;;;;;;4.13;40.83;101044.44;4972574;28;20034;-64
2022/03/20 08:48:14;;;;;;;49.38;24.23;;;;;;;4.22;40.39;101047.91;4964937;28;20106;-64
2022/03/20 08:50:43;;;;;;;42.28;23.05;;;;;;;4.32;39.99;101049.28;4971175;28;20089;-63
2022/03/20 08:53:08;;;;;;;54.42;27.67;;;;;;;4.45;40.18;101048.59;4965217;28;20507;-63
2022/03/20 08:55:34;;;;;;;50.72;27.08;;;;;;;4.61;39.99;101054.84;4964689;28;20162;-64
2022/03/20 08:58:00;;;;;;;47.10;25.65;;;;;;;4.74;39.79;101049.50;4964048;28;20122;-63
2022/03/20 09:00:26;;;;;;;46.00;23.75;;;;;;;4.85;39.17;101052.75;4972704;28;20154;-64
2022/03/20 09:02:53;;;;;;;47.88;24.45;;;;;;;4.94;39.62;101048.88;4968901;28;20040;-64
2022/03/20 09:05:20;;;;;;;49.83;24.88;;;;;;;5.11;39.10;101048.59;4963575;28;20034;-63
2022/03/20 09:07:47;;;;;;;42.53;23.63;;;;;;;5.22;38.85;101040.75;4957548;28;20024;-64
2022/03/20 09:10:14;;;;;;;46.33;24.92;;;;;;;5.27;38.16;101042.88;4968086;28;20109;-64
2022/03/20 09:12:40;;;;;;;42.97;23.48;;;;;;;5.30;38.57;101044.38;4962959;28;20027;-64
2022/03/20 09:15:17;;;;;;;41.03;21.75;;;;;;;5.39;38.10;101043.16;4969953;28;20753;-64
2022/03/20 09:20:30;;;;;;;44.60;23.83;;;;;;;5.72;37.99;101031.66;4978091;28;20505;-64
2022/03/20 09:22:55;;;;;;;39.00;20.92;;;;;;;5.89;37.48;101031.34;4975339;28;20035;-64
2022/03/20 09:25:21;;;;;;;37.17;21.75;;;;;;;5.93;37.79;101030.72;4972097;28;20031;-65
2022/03/20 09:27:51;;;;;;;48.83;24.40;;;;;;;6.02;37.54;101030.56;4975941;28;20038;-64
2022/03/20 09:30:19;;;;;;;41.42;22.20;;;;;;;6.10;36.76;101027.69;4975989;28;20034;-64
2022/03/20 09:32:45;;;;;;;38.47;21.58;;;;;;;6.20;37.49;101030.03;4963879;28;20110;-63
2022/03/20 09:35:11;;;;;;;38.80;21.98;;;;;;;6.28;37.27;101029.03;4965351;28;20031;-64
2022/03/20 09:37:37;;;;;;;32.92;19.48;;;;;;;6.34;36.93;101022.72;4968732;28;21396;-64
2022/03/20 09:40:04;;;;;;;48.63;23.70;;;;;;;6.43;36.56;101021.50;4968491;28;20031;-64
2022/03/20 09:42:29;;;;;;;35.38;19.95;;;;;;;6.55;36.95;101019.88;4966977;28;20516;-65
2022/03/20 09:44:55;;;;;;;39.40;21.58;;;;;;;6.78;36.80;101013.19;4965768;28;20023;-63
2022/03/20 09:47:23;;;;;;;37.35;21.30;;;;;;;6.94;36.27;101022.00;4965852;28;20031;-63
2022/03/20 09:49:50;;;;;;;40.88;23.08;;;;;;;6.96;35.63;101019.91;4968888;28;20456;-63
2022/03/20 09:52:19;;;;;;;37.63;22.58;;;;;;;7.00;35.84;101024.75;4976336;28;20030;-63
2022/03/20 09:54:45;;;;;;;35.58;20.13;;;;;;;7.10;35.50;101021.63;4968189;28;20043;-63
2022/03/20 09:57:11;;;;;;;36.25;19.45;;;;;;;7.28;35.32;101029.16;4960789;28;20122;-63
2022/03/20 09:59:38;;;;;;;37.03;20.95;;;;;;;7.39;34.92;101019.50;4964194;28;20114;-64
2022/03/20 10:02:05;;;;;;;33.63;20.40;;;;;;;7.45;34.91;101015.91;4972051;28;20031;-64
2022/03/20 10:04:34;;;;;;;40.80;22.73;;;;;;;7.55;34.90;101017.34;4960766;28;20027;-63
2022/03/20 10:07:00;;;;;;;34.47;19.08;;;;;;;7.65;34.43;101011.47;4972094;28;20097;-64
2022/03/20 10:09:26;;;;;;;34.90;19.13;;;;;;;7.74;34.28;101010.19;4972006;28;20107;-64
2022/03/20 10:11:55;;;;;;;32.00;19.38;;;;;;;7.84;34.55;101004.25;4969053;28;20026;-64
2022/03/20 10:14:31;;;;;;;33.53;20.00;;;;;;;7.97;33.98;101014.31;4960063;28;20074;-64
2022/03/20 10:17:16;;;;;;;29.90;16.20;;;;;;;8.02;33.66;101018.06;4967747;28;20027;-64
2022/03/20 10:19:41;;;;;;;35.00;20.23;;;;;;;8.05;33.51;101008.59;4959613;28;20130;-64
2022/03/20 10:22:14;;;;;;;32.85;19.05;;;;;;;8.11;33.55;101012.34;4968897;28;20165;-64
2022/03/20 10:24:50;;;;;;;35.33;19.40;;;;;;;8.20;32.90;101011.06;4965060;28;20106;-65
2022/03/20 10:27:16;;;;;;;28.00;16.48;;;;;;;8.27;33.35;101008.28;4973752;28;20049;-65
2022/03/20 10:29:51;;;;;;;25.65;15.52;;;;;;;8.42;32.60;101007.97;4972672;28;20049;-64
2022/03/20 10:32:17;;;;;;;29.20;16.67;;;;;;;8.53;32.51;101001.03;4969911;28;20035;-64
2022/03/20 10:35:04;;;;;;;27.58;15.70;;;;;;;8.58;32.04;101001.19;4973036;28;20093;-62
2022/03/20 10:37:52;;;;;;;26.13;16.23;;;;;;;8.64;32.28;101003.03;4973633;28;20031;-61
2022/03/20 10:40:27;;;;;;;28.10;16.92;;;;;;;8.83;32.18;100998.47;4967388;28;20122;-62
2022/03/20 10:43:12;;;;;;;28.33;16.48;;;;;;;8.96;31.26;101005.78;4964271;28;20031;-62
2022/03/20 10:45:57;;;;;;;30.52;19.02;;;;;;;8.98;31.51;100995.41;4957159;28;20027;-62
2022/03/20 10:48:36;;;;;;;33.85;21.52;;;;;;;9.17;31.73;100993.56;4968297;28;20031;-62
2022/03/20 10:51:02;;;;;;;40.80;28.17;;;;;;;9.35;32.37;100991.94;4971003;28;20039;-63
2022/03/20 10:53:28;;;;;;;25.40;16.35;;;;;;;9.46;31.44;100984.88;4968118;28;20467;-63
2022/03/20 10:56:04;;;;;;;50.70;32.25;;;;;;;9.58;31.51;100987.72;4980719;28;20035;-63
2022/03/20 10:58:30;;;;;;;28.55;16.45;;;;;;;9.68;30.82;100979.78;4962212;28;20050;-63
2022/03/20 11:00:56;;;;;;;25.92;13.75;;;;;;;9.70;29.83;100974.09;4972843;28;20026;-63
2022/03/20 11:03:23;;;;;;;22.58;13.90;;;;;;;9.58;29.75;100963.06;4964905;28;20484;-62
2022/03/20 11:05:54;;;;;;;24.05;14.00;;;;;;;9.55;29.68;100974.47;4956340;28;20042;-63
2022/03/20 11:08:19;;;;;;;28.73;16.58;;;;;;;9.58;30.36;100960.31;4986530;28;20038;-63
2022/03/20 11:10:48;;;;;;;26.92;14.82;;;;;;;9.71;30.04;100962.91;4967743;28;20165;-63
2022/03/20 11:13:15;;;;;;;22.77;14.15;;;;;;;9.80;30.82;100958.78;4969052;28;20031;-63
2022/03/20 11:15:43;;;;;;;21.73;14.65;;;;;;;9.87;30.12;100960.63;4961860;28;20046;-62
2022/03/20 11:18:08;;;;;;;23.92;14.70;;;;;;;9.85;29.02;100954.53;4962136;28;20049;-63
2022/03/20 11:20:34;;;;;;;26.98;15.90;;;;;;;9.80;28.84;100947.81;4974281;28;20027;-63
2022/03/20 11:23:04;;;;;;;31.05;18.90;;;;;;;9.90;29.50;100951.94;4971345;28;20364;-63
2022/03/20 11:25:32;;;;;;;27.58;17.02;;;;;;;10.08;28.87;100945.59;4968923;28;20046;-63
2022/03/20 11:28:01;;;;;;;30.35;18.35;;;;;;;10.12;29.43;100947.63;4969672;28;20080;-64
2022/03/20 11:30:32;;;;;;;28.30;16.63;;;;;;;10.24;29.29;100944.09;4956915;28;20031;-63
2022/03/20 11:33:02;;;;;;;27.23;16.85;;;;;;;10.31;29.66;100935.75;4958953;28;20607;-63
2022/03/20 11:35:32;;;;;;;19.02;12.05;;;;;;;10.37;28.83;100937.56;4961242;28;20412;-63
2022/03/20 11:38:16;;;;;;;22.77;13.45;;;;;;;10.21;28.13;100931.66;4956353;28;20479;-63
2022/03/20 11:41:05;;;;;;;20.60;13.95;;;;;;;10.02;28.13;100930.06;4957639;28;20514;-63
2022/03/20 11:43:31;;;;;;;21.48;13.38;;;;;;;10.12;28.10;100924.84;4968094;28;20026;-63
2022/03/20 11:46:12;;;;;;;21.60;13.35;;;;;;;10.33;28.17;100922.66;4967019;28;20034;-63